sensor_id;sensor_type;location;lat;lon;timestamp;pressure;altitude;pressure_sealevel;temperature;humidity
48364;BME280;34170;54.364;18.582;2022-10-31T00:01:14;100569.69;;;10.59;100.00
48364;BME280;34170;54.364;18.582;2022-10-31T00:03:43;100569.41;;;10.62;100.00
48364;BME280;34170;54.364;18.582;2022-10-31T00:06:10;100577.59;;;10.60;100.00
48364;BME280;34170;54.364;18.582;2022-10-31T00:08:37;100574.78;;;10.62;100.00
48364;BME280;34170;54.364;18.582;2022-10-31T00:11:09;100574.25;;;10.68;100.00
48364;BME280;34170;54.364;18.582;2022-10-31T00:13:36;100570.53;;;10.69;100.00
48364;BME280;34170;54.364;18.582;2022-10-31T00:16:04;100560.03;;;10.56;100.00
48364;BME280;34170;54.364;18.582;2022-10-31T00:18:32;100570.41;;;10.61;100.00
48364;BME280;34170;54.364;18.582;2022-10-31T00:21:03;100555.28;;;10.70;100.00
48364;BME280;34170;54.364;18.582;2022-10-31T00:23:30;100568.81;;;10.58;100.00
48364;BME280;34170;54.364;18.582;2022-10-31T00:26:02;100572.88;;;10.33;100.00
48364;BME280;34170;54.364;18.582;2022-10-31T00:28:30;100572.50;;;10.17;100.00
48364;BME280;34170;54.364;18.582;2022-10-31T00:31:03;100584.72;;;10.30;100.00
48364;BME280;34170;54.364;18.582;2022-10-31T00:33:36;100569.06;;;10.36;100.00
48364;BME280;34170;54.364;18.582;2022-10-31T00:36:06;100573.31;;;10.38;100.00
48364;BME280;34170;54.364;18.582;2022-10-31T00:38:33;100567.81;;;10.49;100.00
48364;BME280;34170;54.364;18.582;2022-10-31T00:41:01;100567.09;;;10.38;100.00
48364;BME280;34170;54.364;18.582;2022-10-31T00:43:28;100560.84;;;10.37;100.00
48364;BME280;34170;54.364;18.582;2022-10-31T00:45:55;100572.47;;;10.38;100.00
48364;BME280;34170;54.364;18.582;2022-10-31T00:48:24;100574.38;;;10.26;100.00
48364;BME280;34170;54.364;18.582;2022-10-31T00:50:52;100566.78;;;10.00;100.00
48364;BME280;34170;54.364;18.582;2022-10-31T00:53:19;100578.69;;;10.07;100.00
48364;BME280;34170;54.364;18.582;2022-10-31T00:55:47;100582.56;;;10.24;100.00
48364;BME280;34170;54.364;18.582;2022-10-31T00:58:14;100582.63;;;10.34;100.00
48364;BME280;34170;54.364;18.582;2022-10-31T01:00:42;100585.19;;;10.36;100.00
48364;BME280;34170;54.364;18.582;2022-10-31T01:03:15;100580.69;;;10.46;100.00
48364;BME280;34170;54.364;18.582;2022-10-31T01:05:42;100583.75;;;10.32;100.00
48364;BME280;34170;54.364;18.582;2022-10-31T01:08:10;100574.31;;;10.47;100.00
48364;BME280;34170;54.364;18.582;2022-10-31T01:10:37;100576.44;;;10.53;100.00
48364;BME280;34170;54.364;18.582;2022-10-31T01:13:04;100578.84;;;10.46;100.00
48364;BME280;34170;54.364;18.582;2022-10-31T01:15:32;100579.25;;;10.42;100.00
48364;BME280;34170;54.364;18.582;2022-10-31T01:17:59;100582.22;;;10.39;100.00
48364;BME280;34170;54.364;18.582;2022-10-31T01:20:29;100593.41;;;10.34;100.00
48364;BME280;34170;54.364;18.582;2022-10-31T01:22:57;100585.59;;;10.31;100.00
48364;BME280;34170;54.364;18.582;2022-10-31T01:25:24;100584.69;;;10.52;100.00
48364;BME280;34170;54.364;18.582;2022-10-31T01:27:54;100593.72;;;10.51;100.00
48364;BME280;34170;54.364;18.582;2022-10-31T01:30:21;100585.13;;;10.66;100.00
48364;BME280;34170;54.364;18.582;2022-10-31T01:32:49;100593.34;;;10.75;100.00
48364;BME280;34170;54.364;18.582;2022-10-31T01:35:16;100589.41;;;10.79;100.00
48364;BME280;34170;54.364;18.582;2022-10-31T01:37:43;100587.94;;;10.65;100.00
48364;BME280;34170;54.364;18.582;2022-10-31T01:40:10;100588.94;;;10.64;100.00
48364;BME280;34170;54.364;18.582;2022-10-31T01:42:38;100593.22;;;10.86;100.00
48364;BME280;34170;54.364;18.582;2022-10-31T01:45:09;100596.31;;;10.81;100.00
48364;BME280;34170;54.364;18.582;2022-10-31T01:47:43;100583.75;;;10.92;100.00
48364;BME280;34170;54.364;18.582;2022-10-31T01:50:18;100589.56;;;11.06;100.00
48364;BME280;34170;54.364;18.582;2022-10-31T01:52:49;100590.00;;;11.02;100.00
48364;BME280;34170;54.364;18.582;2022-10-31T01:55:26;100583.63;;;11.13;100.00
48364;BME280;34170;54.364;18.582;2022-10-31T01:58:01;100574.81;;;11.20;100.00
48364;BME280;34170;54.364;18.582;2022-10-31T02:00:31;100577.94;;;11.25;100.00
48364;BME280;34170;54.364;18.582;2022-10-31T02:02:58;100580.06;;;11.32;100.00
48364;BME280;34170;54.364;18.582;2022-10-31T02:05:29;100585.72;;;11.38;100.00
48364;BME280;34170;54.364;18.582;2022-10-31T02:10:36;100604.84;;;11.45;100.00
48364;BME280;34170;54.364;18.582;2022-10-31T02:13:07;100577.38;;;11.41;100.00
48364;BME280;34170;54.364;18.582;2022-10-31T02:15:44;100585.56;;;11.50;100.00
48364;BME280;34170;54.364;18.582;2022-10-31T02:18:13;100589.97;;;11.51;100.00
48364;BME280;34170;54.364;18.582;2022-10-31T02:21:11;100594.50;;;11.50;100.00
48364;BME280;34170;54.364;18.582;2022-10-31T02:23:51;100595.91;;;11.54;100.00
48364;BME280;34170;54.364;18.582;2022-10-31T02:26:32;100585.59;;;11.40;100.00
48364;BME280;34170;54.364;18.582;2022-10-31T02:34:55;100593.81;;;11.38;100.00
48364;BME280;34170;54.364;18.582;2022-10-31T02:40:23;100606.84;;;11.23;100.00
48364;BME280;34170;54.364;18.582;2022-10-31T02:43:35;100602.03;;;11.37;100.00
48364;BME280;34170;54.364;18.582;2022-10-31T02:46:20;100606.84;;;11.43;100.00
48364;BME280;34170;54.364;18.582;2022-10-31T02:48:54;100597.50;;;11.08;100.00
48364;BME280;34170;54.364;18.582;2022-10-31T02:51:23;100609.81;;;11.20;100.00
48364;BME280;34170;54.364;18.582;2022-10-31T02:53:51;100605.44;;;11.29;100.00
48364;BME280;34170;54.364;18.582;2022-10-31T02:56:19;100611.22;;;11.24;100.00
48364;BME280;34170;54.364;18.582;2022-10-31T02:58:57;100603.47;;;11.21;100.00
48364;BME280;34170;54.364;18.582;2022-10-31T03:04:32;100620.41;;;10.93;100.00
48364;BME280;34170;54.364;18.582;2022-10-31T03:07:28;100614.19;;;10.82;100.00
48364;BME280;34170;54.364;18.582;2022-10-31T03:12:52;100617.53;;;10.75;100.00
48364;BME280;34170;54.364;18.582;2022-10-31T03:15:27;100623.75;;;10.65;100.00
48364;BME280;34170;54.364;18.582;2022-10-31T03:18:16;100618.94;;;10.69;100.00
48364;BME280;34170;54.364;18.582;2022-10-31T03:20:49;100614.13;;;10.63;100.00
48364;BME280;34170;54.364;18.582;2022-10-31T03:23:19;100635.22;;;10.58;100.00
48364;BME280;34170;54.364;18.582;2022-10-31T03:25:51;100627.22;;;10.16;100.00
48364;BME280;34170;54.364;18.582;2022-10-31T03:28:29;100633.00;;;10.32;100.00
48364;BME280;34170;54.364;18.582;2022-10-31T03:31:00;100642.03;;;10.10;100.00
48364;BME280;34170;54.364;18.582;2022-10-31T03:33:37;100637.09;;;10.05;100.00
48364;BME280;34170;54.364;18.582;2022-10-31T03:36:08;100646.72;;;9.87;100.00
48364;BME280;34170;54.364;18.582;2022-10-31T03:38:38;100643.06;;;9.88;100.00
48364;BME280;34170;54.364;18.582;2022-10-31T03:41:11;100634.47;;;9.94;100.00
48364;BME280;34170;54.364;18.582;2022-10-31T03:43:45;100629.97;;;9.95;100.00
48364;BME280;34170;54.364;18.582;2022-10-31T03:46:14;100630.16;;;9.82;100.00
48364;BME280;34170;54.364;18.582;2022-10-31T03:48:42;100632.41;;;9.56;100.00
48364;BME280;34170;54.364;18.582;2022-10-31T03:56:43;100620.97;;;9.42;100.00
48364;BME280;34170;54.364;18.582;2022-10-31T03:59:30;100632.66;;;9.20;100.00
48364;BME280;34170;54.364;18.582;2022-10-31T04:02:07;100623.72;;;8.99;100.00
48364;BME280;34170;54.364;18.582;2022-10-31T04:04:38;100634.94;;;9.04;100.00
48364;BME280;34170;54.364;18.582;2022-10-31T04:07:07;100622.56;;;8.80;100.00
48364;BME280;34170;54.364;18.582;2022-10-31T04:09:37;100644.22;;;8.88;100.00
48364;BME280;34170;54.364;18.582;2022-10-31T04:12:08;100634.50;;;8.87;100.00
48364;BME280;34170;54.364;18.582;2022-10-31T04:15:08;100631.13;;;8.17;100.00
48364;BME280;34170;54.364;18.582;2022-10-31T04:17:40;100630.03;;;8.09;100.00
48364;BME280;34170;54.364;18.582;2022-10-31T04:20:10;100619.53;;;8.17;100.00
48364;BME280;34170;54.364;18.582;2022-10-31T04:22:37;100632.22;;;7.92;100.00
48364;BME280;34170;54.364;18.582;2022-10-31T04:25:05;100635.25;;;7.99;100.00
48364;BME280;34170;54.364;18.582;2022-10-31T04:27:33;100622.78;;;7.75;100.00
48364;BME280;34170;54.364;18.582;2022-10-31T04:30:00;100631.34;;;7.92;100.00
48364;BME280;34170;54.364;18.582;2022-10-31T04:32:30;100629.28;;;7.95;100.00
48364;BME280;34170;54.364;18.582;2022-10-31T04:34:57;100621.63;;;7.91;100.00
48364;BME280;34170;54.364;18.582;2022-10-31T04:37:25;100617.72;;;7.95;100.00
48364;BME280;34170;54.364;18.582;2022-10-31T04:39:52;100613.47;;;8.04;100.00
48364;BME280;34170;54.364;18.582;2022-10-31T04:42:38;100617.00;;;8.04;100.00
48364;BME280;34170;54.364;18.582;2022-10-31T04:45:06;100606.25;;;8.15;100.00
48364;BME280;34170;54.364;18.582;2022-10-31T04:47:35;100624.31;;;8.25;100.00
48364;BME280;34170;54.364;18.582;2022-10-31T04:50:03;100627.09;;;8.23;100.00
48364;BME280;34170;54.364;18.582;2022-10-31T04:52:32;100631.13;;;8.29;100.00
48364;BME280;34170;54.364;18.582;2022-10-31T04:55:00;100624.06;;;8.16;100.00
48364;BME280;34170;54.364;18.582;2022-10-31T04:57:47;100615.66;;;8.21;100.00
48364;BME280;34170;54.364;18.582;2022-10-31T05:00:19;100618.94;;;8.36;100.00
48364;BME280;34170;54.364;18.582;2022-10-31T05:02:56;100608.72;;;8.52;100.00
48364;BME280;34170;54.364;18.582;2022-10-31T05:05:29;100618.34;;;8.44;100.00
48364;BME280;34170;54.364;18.582;2022-10-31T05:07:59;100613.47;;;8.49;100.00
48364;BME280;34170;54.364;18.582;2022-10-31T05:10:29;100608.69;;;8.64;100.00
48364;BME280;34170;54.364;18.582;2022-10-31T05:13:00;100606.13;;;8.73;100.00
48364;BME280;34170;54.364;18.582;2022-10-31T05:15:47;100597.97;;;8.64;100.00
48364;BME280;34170;54.364;18.582;2022-10-31T05:18:33;100608.41;;;8.89;100.00
48364;BME280;34170;54.364;18.582;2022-10-31T05:21:18;100594.13;;;8.89;100.00
48364;BME280;34170;54.364;18.582;2022-10-31T05:23:54;100608.13;;;8.92;100.00
48364;BME280;34170;54.364;18.582;2022-10-31T05:26:23;100604.94;;;8.99;100.00
48364;BME280;34170;54.364;18.582;2022-10-31T05:28:53;100605.50;;;9.13;100.00
48364;BME280;34170;54.364;18.582;2022-10-31T05:31:20;100610.75;;;9.15;100.00
48364;BME280;34170;54.364;18.582;2022-10-31T05:33:49;100609.53;;;9.40;100.00
48364;BME280;34170;54.364;18.582;2022-10-31T05:36:48;100610.13;;;9.44;100.00
48364;BME280;34170;54.364;18.582;2022-10-31T05:39:17;100601.84;;;9.14;100.00
48364;BME280;34170;54.364;18.582;2022-10-31T05:41:50;100608.66;;;9.19;100.00
48364;BME280;34170;54.364;18.582;2022-10-31T05:44:25;100608.19;;;9.13;100.00
48364;BME280;34170;54.364;18.582;2022-10-31T05:47:12;100613.03;;;9.41;100.00
48364;BME280;34170;54.364;18.582;2022-10-31T05:50:09;100611.97;;;9.43;100.00
48364;BME280;34170;54.364;18.582;2022-10-31T05:52:54;100617.84;;;9.58;100.00
48364;BME280;34170;54.364;18.582;2022-10-31T05:55:31;100629.63;;;9.46;100.00
48364;BME280;34170;54.364;18.582;2022-10-31T05:58:14;100628.53;;;9.48;100.00
48364;BME280;34170;54.364;18.582;2022-10-31T06:00:50;100630.63;;;9.66;100.00
48364;BME280;34170;54.364;18.582;2022-10-31T06:03:18;100632.91;;;9.70;100.00
48364;BME280;34170;54.364;18.582;2022-10-31T06:05:47;100633.03;;;9.69;100.00
48364;BME280;34170;54.364;18.582;2022-10-31T06:08:22;100649.75;;;9.72;100.00
48364;BME280;34170;54.364;18.582;2022-10-31T06:10:50;100662.19;;;9.95;100.00
48364;BME280;34170;54.364;18.582;2022-10-31T06:13:29;100659.31;;;9.86;100.00
48364;BME280;34170;54.364;18.582;2022-10-31T06:16:05;100641.81;;;9.92;100.00
48364;BME280;34170;54.364;18.582;2022-10-31T06:18:36;100649.22;;;9.79;100.00
48364;BME280;34170;54.364;18.582;2022-10-31T06:21:03;100651.25;;;9.65;100.00
48364;BME280;34170;54.364;18.582;2022-10-31T06:23:30;100647.25;;;10.02;100.00
48364;BME280;34170;54.364;18.582;2022-10-31T06:26:18;100651.69;;;10.13;100.00
48364;BME280;34170;54.364;18.582;2022-10-31T06:28:45;100652.94;;;10.08;100.00
48364;BME280;34170;54.364;18.582;2022-10-31T06:31:25;100656.19;;;10.12;100.00
48364;BME280;34170;54.364;18.582;2022-10-31T06:33:53;100653.13;;;10.17;100.00
48364;BME280;34170;54.364;18.582;2022-10-31T06:36:20;100641.31;;;10.29;100.00
48364;BME280;34170;54.364;18.582;2022-10-31T06:38:48;100642.56;;;10.25;100.00
48364;BME280;34170;54.364;18.582;2022-10-31T06:41:19;100646.22;;;10.45;100.00
48364;BME280;34170;54.364;18.582;2022-10-31T06:43:48;100657.09;;;10.43;100.00
48364;BME280;34170;54.364;18.582;2022-10-31T06:46:26;100653.06;;;10.59;100.00
48364;BME280;34170;54.364;18.582;2022-10-31T06:49:12;100652.03;;;10.50;100.00
48364;BME280;34170;54.364;18.582;2022-10-31T06:51:49;100658.72;;;10.65;100.00
48364;BME280;34170;54.364;18.582;2022-10-31T06:54:17;100665.56;;;10.89;100.00
48364;BME280;34170;54.364;18.582;2022-10-31T06:56:47;100664.34;;;10.93;100.00
48364;BME280;34170;54.364;18.582;2022-10-31T06:59:15;100661.78;;;11.01;100.00
48364;BME280;34170;54.364;18.582;2022-10-31T07:02:05;100664.78;;;10.98;100.00
48364;BME280;34170;54.364;18.582;2022-10-31T07:04:33;100660.81;;;11.12;100.00
48364;BME280;34170;54.364;18.582;2022-10-31T07:07:00;100664.59;;;11.00;100.00
48364;BME280;34170;54.364;18.582;2022-10-31T07:09:29;100680.53;;;11.13;100.00
48364;BME280;34170;54.364;18.582;2022-10-31T07:12:00;100678.09;;;11.19;100.00
48364;BME280;34170;54.364;18.582;2022-10-31T07:14:29;100671.44;;;11.04;100.00
48364;BME280;34170;54.364;18.582;2022-10-31T07:16:56;100677.28;;;11.29;100.00
48364;BME280;34170;54.364;18.582;2022-10-31T07:19:31;100672.56;;;11.21;100.00
48364;BME280;34170;54.364;18.582;2022-10-31T07:21:58;100676.13;;;11.31;100.00
48364;BME280;34170;54.364;18.582;2022-10-31T07:24:28;100674.72;;;11.27;100.00
48364;BME280;34170;54.364;18.582;2022-10-31T07:27:15;100683.50;;;11.58;100.00
48364;BME280;34170;54.364;18.582;2022-10-31T07:29:44;100689.75;;;11.69;100.00
48364;BME280;34170;54.364;18.582;2022-10-31T07:32:11;100676.44;;;11.77;100.00
48364;BME280;34170;54.364;18.582;2022-10-31T07:34:45;100693.00;;;11.53;100.00
48364;BME280;34170;54.364;18.582;2022-10-31T07:37:39;100688.19;;;11.76;100.00
48364;BME280;34170;54.364;18.582;2022-10-31T07:40:07;100686.19;;;11.88;100.00
48364;BME280;34170;54.364;18.582;2022-10-31T07:42:40;100687.31;;;12.05;100.00
48364;BME280;34170;54.364;18.582;2022-10-31T07:45:28;100695.53;;;12.13;100.00
48364;BME280;34170;54.364;18.582;2022-10-31T07:48:28;100693.19;;;12.37;100.00
48364;BME280;34170;54.364;18.582;2022-10-31T07:51:14;100699.16;;;12.31;100.00
48364;BME280;34170;54.364;18.582;2022-10-31T07:54:07;100695.69;;;12.11;100.00
48364;BME280;34170;54.364;18.582;2022-10-31T07:56:34;100703.22;;;11.98;100.00
48364;BME280;34170;54.364;18.582;2022-10-31T07:59:02;100695.69;;;11.82;100.00
48364;BME280;34170;54.364;18.582;2022-10-31T08:01:29;100690.75;;;11.77;100.00
48364;BME280;34170;54.364;18.582;2022-10-31T08:04:23;100688.19;;;11.76;100.00
48364;BME280;34170;54.364;18.582;2022-10-31T08:07:08;100691.31;;;11.81;100.00
48364;BME280;34170;54.364;18.582;2022-10-31T08:09:38;100696.09;;;12.16;100.00
48364;BME280;34170;54.364;18.582;2022-10-31T08:12:18;100694.84;;;12.11;100.00
48364;BME280;34170;54.364;18.582;2022-10-31T08:14:46;100695.53;;;12.03;100.00
48364;BME280;34170;54.364;18.582;2022-10-31T08:17:16;100697.13;;;12.06;100.00
48364;BME280;34170;54.364;18.582;2022-10-31T08:19:52;100702.16;;;12.28;100.00
48364;BME280;34170;54.364;18.582;2022-10-31T08:22:24;100694.72;;;11.93;100.00
48364;BME280;34170;54.364;18.582;2022-10-31T08:24:51;100699.22;;;12.12;100.00
48364;BME280;34170;54.364;18.582;2022-10-31T08:27:20;100702.63;;;12.24;100.00
48364;BME280;34170;54.364;18.582;2022-10-31T08:29:47;100696.97;;;11.97;100.00
48364;BME280;34170;54.364;18.582;2022-10-31T08:32:14;100703.50;;;11.85;100.00
48364;BME280;34170;54.364;18.582;2022-10-31T08:35:08;100698.09;;;12.05;100.00
48364;BME280;34170;54.364;18.582;2022-10-31T08:37:35;100698.56;;;11.90;100.00
48364;BME280;34170;54.364;18.582;2022-10-31T08:40:07;100702.09;;;11.61;100.00
48364;BME280;34170;54.364;18.582;2022-10-31T08:42:34;100701.06;;;12.01;100.00
48364;BME280;34170;54.364;18.582;2022-10-31T08:45:02;100715.66;;;11.89;100.00
48364;BME280;34170;54.364;18.582;2022-10-31T08:47:31;100724.75;;;12.27;100.00
48364;BME280;34170;54.364;18.582;2022-10-31T08:49:59;100720.00;;;12.49;100.00
48364;BME280;34170;54.364;18.582;2022-10-31T08:52:26;100718.09;;;12.59;100.00
48364;BME280;34170;54.364;18.582;2022-10-31T08:55:14;100719.28;;;12.84;100.00
48364;BME280;34170;54.364;18.582;2022-10-31T08:58:07;100710.09;;;12.30;100.00
48364;BME280;34170;54.364;18.582;2022-10-31T09:00:43;100716.22;;;12.69;100.00
48364;BME280;34170;54.364;18.582;2022-10-31T09:03:25;100716.31;;;12.77;100.00
48364;BME280;34170;54.364;18.582;2022-10-31T09:05:58;100715.72;;;13.11;100.00
48364;BME280;34170;54.364;18.582;2022-10-31T09:08:29;100712.38;;;12.34;100.00
48364;BME280;34170;54.364;18.582;2022-10-31T09:10:57;100704.09;;;12.46;100.00
48364;BME280;34170;54.364;18.582;2022-10-31T09:13:52;100695.38;;;12.62;100.00
48364;BME280;34170;54.364;18.582;2022-10-31T09:16:58;100700.56;;;12.35;100.00
48364;BME280;34170;54.364;18.582;2022-10-31T09:19:39;100697.53;;;12.58;100.00
48364;BME280;34170;54.364;18.582;2022-10-31T09:22:07;100699.16;;;12.31;100.00
48364;BME280;34170;54.364;18.582;2022-10-31T09:24:34;100702.16;;;12.66;100.00
48364;BME280;34170;54.364;18.582;2022-10-31T09:27:01;100701.63;;;12.62;100.00
48364;BME280;34170;54.364;18.582;2022-10-31T09:29:29;100712.19;;;12.83;100.00
48364;BME280;34170;54.364;18.582;2022-10-31T09:31:59;100710.53;;;12.35;100.00
48364;BME280;34170;54.364;18.582;2022-10-31T09:34:31;100702.09;;;12.00;100.00
48364;BME280;34170;54.364;18.582;2022-10-31T09:37:02;100705.16;;;12.25;100.00
48364;BME280;34170;54.364;18.582;2022-10-31T09:39:30;100695.91;;;12.28;100.00
48364;BME280;34170;54.364;18.582;2022-10-31T09:45:27;100693.78;;;12.31;100.00
48364;BME280;34170;54.364;18.582;2022-10-31T09:48:11;100701.78;;;12.04;100.00
48364;BME280;34170;54.364;18.582;2022-10-31T09:51:03;100706.16;;;12.24;100.00
48364;BME280;34170;54.364;18.582;2022-10-31T09:54:03;100712.47;;;12.52;100.00
48364;BME280;34170;54.364;18.582;2022-10-31T09:56:32;100718.13;;;12.49;100.00
48364;BME280;34170;54.364;18.582;2022-10-31T09:59:02;100718.00;;;12.78;100.00
48364;BME280;34170;54.364;18.582;2022-10-31T10:07:02;100726.16;;;12.96;100.00
48364;BME280;34170;54.364;18.582;2022-10-31T10:09:51;100710.38;;;12.74;100.00
48364;BME280;34170;54.364;18.582;2022-10-31T10:15:55;100720.47;;;12.72;100.00
48364;BME280;34170;54.364;18.582;2022-10-31T10:26:46;100718.78;;;12.99;100.00
48364;BME280;34170;54.364;18.582;2022-10-31T10:29:29;100714.25;;;12.62;100.00
48364;BME280;34170;54.364;18.582;2022-10-31T10:32:01;100711.97;;;12.94;100.00
48364;BME280;34170;54.364;18.582;2022-10-31T10:34:41;100717.72;;;13.09;100.00
48364;BME280;34170;54.364;18.582;2022-10-31T10:37:33;100714.03;;;13.28;100.00
48364;BME280;34170;54.364;18.582;2022-10-31T10:40:22;100709.75;;;13.35;100.00
48364;BME280;34170;54.364;18.582;2022-10-31T10:45:42;100699.69;;;13.28;100.00
48364;BME280;34170;54.364;18.582;2022-10-31T10:51:43;100711.38;;;13.46;100.00
48364;BME280;34170;54.364;18.582;2022-10-31T10:57:38;100714.09;;;13.64;100.00
48364;BME280;34170;54.364;18.582;2022-10-31T11:00:38;100711.06;;;13.85;100.00
48364;BME280;34170;54.364;18.582;2022-10-31T11:03:06;100701.44;;;13.65;100.00
48364;BME280;34170;54.364;18.582;2022-10-31T11:05:47;100711.19;;;13.30;100.00
48364;BME280;34170;54.364;18.582;2022-10-31T11:08:31;100708.28;;;13.41;100.00
48364;BME280;34170;54.364;18.582;2022-10-31T11:11:25;100696.41;;;13.34;100.00
48364;BME280;34170;54.364;18.582;2022-10-31T11:14:00;100690.41;;;13.40;100.00
48364;BME280;34170;54.364;18.582;2022-10-31T11:16:36;100698.50;;;13.58;100.00
48364;BME280;34170;54.364;18.582;2022-10-31T11:19:08;100701.72;;;13.80;100.00
48364;BME280;34170;54.364;18.582;2022-10-31T11:21:43;100702.91;;;13.77;100.00
48364;BME280;34170;54.364;18.582;2022-10-31T11:24:24;100703.59;;;13.79;100.00
48364;BME280;34170;54.364;18.582;2022-10-31T11:27:25;100693.16;;;13.84;100.00
48364;BME280;34170;54.364;18.582;2022-10-31T11:29:51;100703.50;;;13.71;100.00
48364;BME280;34170;54.364;18.582;2022-10-31T11:32:27;100713.72;;;13.77;100.00
48364;BME280;34170;54.364;18.582;2022-10-31T11:34:59;100707.38;;;13.86;100.00
48364;BME280;34170;54.364;18.582;2022-10-31T11:37:32;100693.38;;;13.73;100.00
48364;BME280;34170;54.364;18.582;2022-10-31T11:40:06;100705.53;;;13.69;100.00
48364;BME280;34170;54.364;18.582;2022-10-31T11:42:41;100697.63;;;13.22;100.00
48364;BME280;34170;54.364;18.582;2022-10-31T11:45:32;100700.66;;;13.37;100.00
48364;BME280;34170;54.364;18.582;2022-10-31T11:48:01;100700.19;;;13.41;100.00
48364;BME280;34170;54.364;18.582;2022-10-31T11:50:41;100706.59;;;13.58;100.00
48364;BME280;34170;54.364;18.582;2022-10-31T11:53:16;100704.50;;;13.52;100.00
48364;BME280;34170;54.364;18.582;2022-10-31T11:55:44;100705.81;;;13.66;100.00
48364;BME280;34170;54.364;18.582;2022-10-31T11:58:25;100704.53;;;13.70;100.00
48364;BME280;34170;54.364;18.582;2022-10-31T12:00:55;100706.84;;;13.83;100.00
48364;BME280;34170;54.364;18.582;2022-10-31T12:05:56;100702.56;;;13.80;100.00
48364;BME280;34170;54.364;18.582;2022-10-31T12:08:30;100707.75;;;13.91;100.00
48364;BME280;34170;54.364;18.582;2022-10-31T12:17:08;100694.53;;;13.88;100.00
48364;BME280;34170;54.364;18.582;2022-10-31T12:22:51;100690.63;;;13.65;100.00
48364;BME280;34170;54.364;18.582;2022-10-31T12:33:34;100700.63;;;13.90;100.00
48364;BME280;34170;54.364;18.582;2022-10-31T12:36:28;100699.88;;;13.80;100.00
48364;BME280;34170;54.364;18.582;2022-10-31T12:47:32;100699.47;;;13.75;100.00
48364;BME280;34170;54.364;18.582;2022-10-31T12:58:46;100696.78;;;13.57;100.00
48364;BME280;34170;54.364;18.582;2022-10-31T13:01:19;100694.19;;;13.65;100.00
48364;BME280;34170;54.364;18.582;2022-10-31T13:04:05;100685.63;;;13.70;100.00
48364;BME280;34170;54.364;18.582;2022-10-31T13:06:42;100694.94;;;13.76;100.00
48364;BME280;34170;54.364;18.582;2022-10-31T13:09:25;100694.88;;;13.67;100.00
48364;BME280;34170;54.364;18.582;2022-10-31T13:12:00;100682.44;;;13.57;100.00
48364;BME280;34170;54.364;18.582;2022-10-31T13:14:39;100680.59;;;13.39;100.00
48364;BME280;34170;54.364;18.582;2022-10-31T13:17:18;100678.34;;;13.52;100.00
48364;BME280;34170;54.364;18.582;2022-10-31T13:19:50;100675.81;;;13.51;100.00
48364;BME280;34170;54.364;18.582;2022-10-31T13:22:23;100682.69;;;13.45;100.00
48364;BME280;34170;54.364;18.582;2022-10-31T13:24:59;100687.94;;;13.47;100.00
48364;BME280;34170;54.364;18.582;2022-10-31T13:27:56;100682.06;;;13.33;100.00
48364;BME280;34170;54.364;18.582;2022-10-31T13:30:29;100676.34;;;13.54;100.00
48364;BME280;34170;54.364;18.582;2022-10-31T13:33:18;100691.47;;;13.47;100.00
48364;BME280;34170;54.364;18.582;2022-10-31T13:36:19;100687.44;;;13.33;100.00
48364;BME280;34170;54.364;18.582;2022-10-31T13:41:54;100688.44;;;12.87;100.00
48364;BME280;34170;54.364;18.582;2022-10-31T13:44:27;100688.06;;;13.00;100.00
48364;BME280;34170;54.364;18.582;2022-10-31T13:47:00;100691.25;;;12.95;100.00
48364;BME280;34170;54.364;18.582;2022-10-31T13:54:39;100681.94;;;12.80;100.00
48364;BME280;34170;54.364;18.582;2022-10-31T13:57:32;100699.53;;;12.84;100.00
48364;BME280;34170;54.364;18.582;2022-10-31T14:00:22;100695.84;;;12.85;100.00
48364;BME280;34170;54.364;18.582;2022-10-31T14:02:56;100701.31;;;12.65;100.00
48364;BME280;34170;54.364;18.582;2022-10-31T14:05:32;100696.63;;;12.67;100.00
48364;BME280;34170;54.364;18.582;2022-10-31T14:08:02;100687.97;;;12.64;100.00
48364;BME280;34170;54.364;18.582;2022-10-31T14:10:36;100696.38;;;12.88;100.00
48364;BME280;34170;54.364;18.582;2022-10-31T14:13:15;100694.69;;;12.87;100.00
48364;BME280;34170;54.364;18.582;2022-10-31T14:16:06;100697.72;;;12.74;100.00
48364;BME280;34170;54.364;18.582;2022-10-31T14:18:45;100695.22;;;12.63;100.00
48364;BME280;34170;54.364;18.582;2022-10-31T14:23:52;100693.63;;;12.70;100.00
48364;BME280;34170;54.364;18.582;2022-10-31T14:28:55;100697.31;;;12.69;100.00
48364;BME280;34170;54.364;18.582;2022-10-31T14:31:38;100694.22;;;12.64;100.00
48364;BME280;34170;54.364;18.582;2022-10-31T14:34:18;100701.06;;;12.58;100.00
48364;BME280;34170;54.364;18.582;2022-10-31T14:42:41;100691.22;;;12.30;100.00
48364;BME280;34170;54.364;18.582;2022-10-31T14:50:29;100688.88;;;12.54;100.00
48364;BME280;34170;54.364;18.582;2022-10-31T14:53:04;100692.88;;;12.50;100.00
48364;BME280;34170;54.364;18.582;2022-10-31T14:55:33;100689.72;;;12.55;100.00
48364;BME280;34170;54.364;18.582;2022-10-31T14:58:03;100696.34;;;12.61;100.00
48364;BME280;34170;54.364;18.582;2022-10-31T15:00:33;100688.59;;;12.57;100.00
48364;BME280;34170;54.364;18.582;2022-10-31T15:03:15;100695.03;;;12.47;100.00
48364;BME280;34170;54.364;18.582;2022-10-31T15:05:49;100692.34;;;12.37;100.00